THY1RV LTAN-LTFM
Flight info
| Callsign | THY1RV |
|---|---|
| Flight time | 0h 57m |
| Altitude | 38000 |
| Route | HISAR UL620 OSVEL UT337 KFK UM855 SISPI |
| Aircraft | A20N/M-SDE2E3FGHIRWXY/LB1 |
Departure
| Time | 2026-05-04 18:47 |
|---|---|
| Airport | Konya Airport (LTAN) |
Arrival
| Time | 2026-05-04 19:45 |
|---|---|
| Airport | İstanbul Airport (LTFM) |
| Time | Latitude | Longitude | Altitude | Speed | Heading |
|---|---|---|---|---|---|
| 2026-05-04 18:34 | 37.99347 | 32.56043 | 3391 ft | 0 kts | 70° |
| 2026-05-04 18:41 | 37.99347 | 32.56044 | 3391 ft | 0 kts | 79° |
| 2026-05-04 18:41 | 37.99341 | 32.56051 | 3391 ft | 0 kts | 145° |
| 2026-05-04 18:41 | 37.99319 | 32.56063 | 3391 ft | 7 kts | 160° |
| 2026-05-04 18:41 | 37.99259 | 32.56066 | 3390 ft | 11 kts | 179° |
| 2026-05-04 18:42 | 37.99171 | 32.56072 | 3389 ft | 14 kts | 175° |
| 2026-05-04 18:42 | 37.99064 | 32.56051 | 3388 ft | 17 kts | 200° |
| 2026-05-04 18:42 | 37.98944 | 32.55997 | 3387 ft | 18 kts | 190° |
| 2026-05-04 18:42 | 37.98812 | 32.56015 | 3388 ft | 21 kts | 161° |
| 2026-05-04 18:43 | 37.98739 | 32.56163 | 3384 ft | 22 kts | 111° |
| 2026-05-04 18:43 | 37.98639 | 32.56225 | 3382 ft | 17 kts | 198° |
| 2026-05-04 18:43 | 37.98518 | 32.56183 | 3381 ft | 20 kts | 196° |
| 2026-05-04 18:43 | 37.98376 | 32.56127 | 3380 ft | 23 kts | 199° |
| 2026-05-04 18:44 | 37.98222 | 32.56068 | 3381 ft | 24 kts | 197° |
| 2026-05-04 18:44 | 37.98114 | 32.56025 | 3380 ft | 25 kts | 197° |
| 2026-05-04 18:44 | 37.97876 | 32.55936 | 3379 ft | 28 kts | 194° |
| 2026-05-04 18:44 | 37.97682 | 32.55862 | 3377 ft | 30 kts | 198° |
| 2026-05-04 18:45 | 37.97471 | 32.55779 | 3371 ft | 33 kts | 195° |
| 2026-05-04 18:45 | 37.97247 | 32.55692 | 3369 ft | 34 kts | 198° |
| 2026-05-04 18:45 | 37.97014 | 32.55609 | 3368 ft | 35 kts | 198° |
| 2026-05-04 18:45 | 37.96780 | 32.55517 | 3384 ft | 33 kts | 195° |
| 2026-05-04 18:46 | 37.96588 | 32.55448 | 3382 ft | 24 kts | 197° |
| 2026-05-04 18:46 | 37.96480 | 32.55502 | 3382 ft | 11 kts | 100° |
| 2026-05-04 18:46 | 37.96477 | 32.55598 | 3387 ft | 12 kts | 97° |
| 2026-05-04 18:46 | 37.96506 | 32.55670 | 3384 ft | 10 kts | 12° |
| 2026-05-04 18:47 | 37.96693 | 32.55739 | 3388 ft | 61 kts | 17° |
| 2026-05-04 18:47 | 37.97303 | 32.55967 | 3369 ft | 120 kts | 16° |
| 2026-05-04 18:47 | 37.98247 | 32.56327 | 3426 ft | 159 kts | 13° |
| 2026-05-04 18:47 | 37.99282 | 32.56763 | 4037 ft | 159 kts | 13° |
| 2026-05-04 18:48 | 38.00332 | 32.57169 | 4792 ft | 154 kts | 10° |
| 2026-05-04 18:48 | 38.01347 | 32.57547 | 5505 ft | 155 kts | 9° |
| 2026-05-04 18:48 | 38.02427 | 32.57939 | 5885 ft | 173 kts | 10° |
| 2026-05-04 18:48 | 38.03649 | 32.58385 | 6314 ft | 193 kts | 11° |
| 2026-05-04 18:49 | 38.04989 | 32.58887 | 6871 ft | 206 kts | 12° |
| 2026-05-04 18:49 | 38.06378 | 32.59506 | 7591 ft | 216 kts | 20° |
| 2026-05-04 18:49 | 38.07725 | 32.60389 | 8505 ft | 219 kts | 24° |
| 2026-05-04 18:49 | 38.09075 | 32.61305 | 9402 ft | 223 kts | 23° |
| 2026-05-04 18:50 | 38.10489 | 32.62187 | 10173 ft | 230 kts | 22° |
| 2026-05-04 18:50 | 38.11961 | 32.63036 | 10938 ft | 234 kts | 20° |
| 2026-05-04 18:50 | 38.13461 | 32.63865 | 11786 ft | 236 kts | 19° |
| 2026-05-04 18:50 | 38.14982 | 32.64689 | 12596 ft | 240 kts | 19° |
| 2026-05-04 18:51 | 38.16530 | 32.65519 | 13416 ft | 242 kts | 20° |
| 2026-05-04 18:51 | 38.18094 | 32.66356 | 14178 ft | 245 kts | 19° |
| 2026-05-04 18:51 | 38.19713 | 32.66965 | 14895 ft | 241 kts | 1° |
| 2026-05-04 18:51 | 38.21362 | 32.66812 | 15583 ft | 239 kts | 340° |
| 2026-05-04 18:52 | 38.22835 | 32.65851 | 16185 ft | 243 kts | 319° |
| 2026-05-04 18:52 | 38.23873 | 32.64168 | 16873 ft | 241 kts | 295° |
| 2026-05-04 18:52 | 38.24302 | 32.62088 | 17497 ft | 251 kts | 273° |
| 2026-05-04 18:52 | 38.23988 | 32.59879 | 18125 ft | 261 kts | 249° |
| 2026-05-04 18:53 | 38.22924 | 32.57976 | 18698 ft | 273 kts | 224° |
| 2026-05-04 18:53 | 38.21276 | 32.56665 | 19089 ft | 289 kts | 216° |
| 2026-05-04 18:53 | 38.19802 | 32.54894 | 19243 ft | 298 kts | 241° |
| 2026-05-04 18:53 | 38.19018 | 32.52431 | 19413 ft | 308 kts | 264° |
| 2026-05-04 18:54 | 38.18891 | 32.49658 | 19594 ft | 323 kts | 273° |
| 2026-05-04 18:54 | 38.18925 | 32.46720 | 19769 ft | 342 kts | 273° |
| 2026-05-04 18:54 | 38.18886 | 32.43615 | 19939 ft | 361 kts | 270° |
| 2026-05-04 18:54 | 38.18736 | 32.40382 | 20340 ft | 370 kts | 268° |
| 2026-05-04 18:55 | 38.18511 | 32.37113 | 21024 ft | 372 kts | 268° |
| 2026-05-04 18:55 | 38.17978 | 32.30480 | 22078 ft | 384 kts | 269° |
| 2026-05-04 18:55 | 38.17699 | 32.27097 | 22760 ft | 386 kts | 269° |
| 2026-05-04 18:56 | 38.17419 | 32.23691 | 23350 ft | 389 kts | 269° |
| 2026-05-04 18:56 | 38.17138 | 32.20257 | 23869 ft | 392 kts | 269° |
| 2026-05-04 18:56 | 38.16854 | 32.16792 | 24347 ft | 396 kts | 269° |
| 2026-05-04 18:56 | 38.16567 | 32.13295 | 24820 ft | 400 kts | 269° |
| 2026-05-04 18:57 | 38.16276 | 32.09769 | 25289 ft | 403 kts | 269° |
| 2026-05-04 18:57 | 38.15981 | 32.06215 | 25698 ft | 408 kts | 270° |
| 2026-05-04 18:57 | 38.15681 | 32.02590 | 25958 ft | 416 kts | 270° |
| 2026-05-04 18:57 | 38.15377 | 31.98932 | 26454 ft | 417 kts | 270° |
| 2026-05-04 18:58 | 38.15069 | 31.95252 | 26904 ft | 421 kts | 270° |
| 2026-05-04 18:58 | 38.14757 | 31.91541 | 27323 ft | 424 kts | 269° |
| 2026-05-04 18:58 | 38.14442 | 31.87804 | 27749 ft | 427 kts | 269° |
| 2026-05-04 18:58 | 38.14124 | 31.84039 | 28150 ft | 430 kts | 269° |
| 2026-05-04 18:59 | 38.13802 | 31.80246 | 28539 ft | 433 kts | 269° |
| 2026-05-04 18:59 | 38.13479 | 31.76464 | 28742 ft | 440 kts | 269° |
| 2026-05-04 18:59 | 38.13148 | 31.72589 | 29112 ft | 443 kts | 269° |
| 2026-05-04 18:59 | 38.12813 | 31.68694 | 29497 ft | 445 kts | 269° |
| 2026-05-04 19:00 | 38.12475 | 31.64774 | 29853 ft | 448 kts | 269° |
| 2026-05-04 19:00 | 38.12180 | 31.60832 | 30182 ft | 447 kts | 274° |
| 2026-05-04 19:00 | 38.12407 | 31.56932 | 30500 ft | 440 kts | 286° |
| 2026-05-04 19:00 | 38.13265 | 31.53235 | 30807 ft | 435 kts | 297° |
| 2026-05-04 19:01 | 38.14693 | 31.49874 | 31061 ft | 431 kts | 309° |
| 2026-05-04 19:01 | 38.16587 | 31.46957 | 31390 ft | 427 kts | 316° |
| 2026-05-04 19:01 | 38.18582 | 31.44152 | 31776 ft | 427 kts | 315° |
| 2026-05-04 19:01 | 38.20568 | 31.41344 | 32159 ft | 427 kts | 315° |
| 2026-05-04 19:02 | 38.22552 | 31.38529 | 32538 ft | 427 kts | 315° |
| 2026-05-04 19:02 | 38.24535 | 31.35711 | 32904 ft | 428 kts | 314° |
| 2026-05-04 19:02 | 38.26518 | 31.32891 | 33240 ft | 428 kts | 314° |
| 2026-05-04 19:02 | 38.28499 | 31.30071 | 33608 ft | 427 kts | 314° |
| 2026-05-04 19:03 | 38.30477 | 31.27252 | 33973 ft | 427 kts | 314° |
| 2026-05-04 19:03 | 38.32455 | 31.24431 | 34260 ft | 427 kts | 313° |
| 2026-05-04 19:03 | 38.33763 | 31.22564 | 34420 ft | 427 kts | 313° |
| 2026-05-04 19:03 | 38.35742 | 31.19736 | 34678 ft | 427 kts | 313° |
| 2026-05-04 19:04 | 38.37721 | 31.16906 | 34946 ft | 428 kts | 313° |
| 2026-05-04 19:04 | 38.39699 | 31.14075 | 35199 ft | 428 kts | 313° |
| 2026-05-04 19:04 | 38.41678 | 31.11238 | 35445 ft | 428 kts | 313° |
| 2026-05-04 19:04 | 38.44299 | 31.07480 | 35776 ft | 429 kts | 313° |
| 2026-05-04 19:05 | 38.45638 | 31.05558 | 35939 ft | 429 kts | 313° |
| 2026-05-04 19:05 | 38.47618 | 31.02713 | 36165 ft | 429 kts | 313° |
| 2026-05-04 19:05 | 38.49596 | 30.99862 | 36394 ft | 429 kts | 312° |
| 2026-05-04 19:05 | 38.51567 | 30.96997 | 36622 ft | 429 kts | 312° |
| 2026-05-04 19:06 | 38.53534 | 30.94126 | 36824 ft | 430 kts | 312° |
| 2026-05-04 19:06 | 38.55504 | 30.91249 | 37052 ft | 430 kts | 312° |
| 2026-05-04 19:06 | 38.57449 | 30.88408 | 37260 ft | 430 kts | 311° |
| 2026-05-04 19:06 | 38.59419 | 30.85529 | 37472 ft | 430 kts | 311° |
| 2026-05-04 19:07 | 38.61392 | 30.82645 | 37657 ft | 431 kts | 311° |
| 2026-05-04 19:07 | 38.63364 | 30.79761 | 37867 ft | 431 kts | 311° |
| 2026-05-04 19:07 | 38.65336 | 30.76872 | 38009 ft | 431 kts | 311° |
| 2026-05-04 19:07 | 38.67306 | 30.73986 | 38009 ft | 430 kts | 311° |
| 2026-05-04 19:08 | 38.71233 | 30.68222 | 38016 ft | 429 kts | 311° |
| 2026-05-04 19:08 | 38.75159 | 30.62449 | 38021 ft | 430 kts | 311° |
| 2026-05-04 19:09 | 38.79314 | 30.56948 | 38022 ft | 431 kts | 320° |
| 2026-05-04 19:09 | 38.84180 | 30.52445 | 38031 ft | 432 kts | 329° |
| 2026-05-04 19:10 | 38.89522 | 30.48909 | 38035 ft | 432 kts | 333° |
| 2026-05-04 19:10 | 38.94905 | 30.45452 | 38037 ft | 433 kts | 333° |
| 2026-05-04 19:11 | 39.00290 | 30.41992 | 38033 ft | 433 kts | 333° |
| 2026-05-04 19:11 | 39.05675 | 30.38531 | 38023 ft | 430 kts | 333° |
| 2026-05-04 19:12 | 39.13677 | 30.33382 | 38022 ft | 429 kts | 333° |
| 2026-05-04 19:13 | 39.19017 | 30.29939 | 38027 ft | 429 kts | 333° |
| 2026-05-04 19:13 | 39.24356 | 30.26492 | 38028 ft | 429 kts | 333° |
| 2026-05-04 19:14 | 39.29693 | 30.23038 | 38025 ft | 429 kts | 333° |
| 2026-05-04 19:14 | 39.35032 | 30.19579 | 38026 ft | 429 kts | 333° |
| 2026-05-04 19:15 | 39.40370 | 30.16114 | 38037 ft | 429 kts | 333° |
| 2026-05-04 19:15 | 39.45710 | 30.12648 | 38033 ft | 429 kts | 334° |
| 2026-05-04 19:16 | 39.51184 | 30.09576 | 38038 ft | 429 kts | 336° |
| 2026-05-04 19:16 | 39.56659 | 30.06523 | 37756 ft | 428 kts | 337° |
| 2026-05-04 19:16 | 39.59377 | 30.05005 | 37152 ft | 429 kts | 337° |
| 2026-05-04 19:17 | 39.62124 | 30.03469 | 36341 ft | 432 kts | 338° |
| 2026-05-04 19:17 | 39.64898 | 30.01918 | 35452 ft | 436 kts | 338° |
| 2026-05-04 19:17 | 39.67690 | 30.00353 | 34659 ft | 437 kts | 339° |
| 2026-05-04 19:17 | 39.70479 | 29.98790 | 33900 ft | 437 kts | 339° |
| 2026-05-04 19:18 | 39.73261 | 29.97228 | 33082 ft | 434 kts | 340° |
| 2026-05-04 19:18 | 39.76028 | 29.95672 | 32278 ft | 431 kts | 340° |
| 2026-05-04 19:18 | 39.78772 | 29.94128 | 31497 ft | 429 kts | 341° |
| 2026-05-04 19:18 | 39.81500 | 29.92591 | 30714 ft | 426 kts | 341° |
| 2026-05-04 19:19 | 39.84219 | 29.91059 | 29829 ft | 425 kts | 341° |
| 2026-05-04 19:19 | 39.86923 | 29.89537 | 28926 ft | 419 kts | 341° |
| 2026-05-04 19:19 | 39.89582 | 29.88231 | 28390 ft | 397 kts | 348° |
| 2026-05-04 19:19 | 39.92166 | 29.87422 | 27956 ft | 381 kts | 354° |
| 2026-05-04 19:20 | 39.94756 | 29.86988 | 27615 ft | 373 kts | 354° |
| 2026-05-04 19:20 | 39.97288 | 29.86042 | 27360 ft | 387 kts | 340° |
| 2026-05-04 19:20 | 39.99610 | 29.84190 | 27085 ft | 398 kts | 327° |
| 2026-05-04 19:20 | 40.01599 | 29.81647 | 26795 ft | 403 kts | 319° |
| 2026-05-04 19:21 | 40.03487 | 29.78936 | 26540 ft | 403 kts | 320° |
| 2026-05-04 19:21 | 40.05424 | 29.76307 | 26290 ft | 400 kts | 322° |
| 2026-05-04 19:21 | 40.07416 | 29.73801 | 26029 ft | 395 kts | 324° |
| 2026-05-04 19:21 | 40.09438 | 29.71387 | 25792 ft | 393 kts | 324° |
| 2026-05-04 19:22 | 40.11481 | 29.69017 | 25553 ft | 392 kts | 325° |
| 2026-05-04 19:22 | 40.13523 | 29.66669 | 25309 ft | 390 kts | 325° |
| 2026-05-04 19:22 | 40.15558 | 29.64334 | 25017 ft | 389 kts | 325° |
| 2026-05-04 19:22 | 40.17587 | 29.62003 | 24644 ft | 387 kts | 325° |
| 2026-05-04 19:23 | 40.19601 | 29.59684 | 24226 ft | 384 kts | 325° |
| 2026-05-04 19:23 | 40.21598 | 29.57379 | 23805 ft | 381 kts | 325° |
| 2026-05-04 19:23 | 40.23576 | 29.55095 | 23348 ft | 378 kts | 325° |
| 2026-05-04 19:23 | 40.25544 | 29.52821 | 22778 ft | 376 kts | 325° |
| 2026-05-04 19:24 | 40.27491 | 29.50569 | 22224 ft | 371 kts | 325° |
| 2026-05-04 19:24 | 40.29416 | 29.48341 | 21725 ft | 368 kts | 325° |
| 2026-05-04 19:24 | 40.31332 | 29.46124 | 21200 ft | 367 kts | 324° |
| 2026-05-04 19:24 | 40.33237 | 29.43919 | 20693 ft | 363 kts | 324° |
| 2026-05-04 19:25 | 40.35121 | 29.41734 | 20197 ft | 360 kts | 324° |
| 2026-05-04 19:25 | 40.36988 | 29.39568 | 19694 ft | 357 kts | 324° |
| 2026-05-04 19:25 | 40.38846 | 29.37411 | 19230 ft | 356 kts | 324° |
| 2026-05-04 19:25 | 40.40687 | 29.35269 | 18767 ft | 352 kts | 323° |
| 2026-05-04 19:26 | 40.42508 | 29.33150 | 18175 ft | 348 kts | 323° |
| 2026-05-04 19:26 | 40.44314 | 29.31047 | 17257 ft | 346 kts | 323° |
| 2026-05-04 19:26 | 40.46107 | 29.28957 | 16345 ft | 344 kts | 323° |
| 2026-05-04 19:26 | 40.47890 | 29.26879 | 15479 ft | 344 kts | 323° |
| 2026-05-04 19:27 | 40.49695 | 29.24776 | 14660 ft | 349 kts | 322° |
| 2026-05-04 19:27 | 40.51512 | 29.22657 | 13970 ft | 350 kts | 322° |
| 2026-05-04 19:27 | 40.53334 | 29.20528 | 13215 ft | 351 kts | 322° |
| 2026-05-04 19:27 | 40.55148 | 29.18394 | 12478 ft | 349 kts | 322° |
| 2026-05-04 19:28 | 40.56913 | 29.16316 | 11981 ft | 338 kts | 322° |
| 2026-05-04 19:28 | 40.58615 | 29.14313 | 11705 ft | 319 kts | 323° |
| 2026-05-04 19:28 | 40.60267 | 29.12382 | 11453 ft | 321 kts | 323° |
| 2026-05-04 19:28 | 40.61933 | 29.10436 | 11205 ft | 319 kts | 323° |
| 2026-05-04 19:29 | 40.63581 | 29.08500 | 10956 ft | 316 kts | 323° |
| 2026-05-04 19:29 | 40.65220 | 29.06573 | 10706 ft | 316 kts | 323° |
| 2026-05-04 19:29 | 40.66862 | 29.04641 | 10462 ft | 315 kts | 323° |
| 2026-05-04 19:29 | 40.68444 | 29.02770 | 10312 ft | 298 kts | 323° |
| 2026-05-04 19:30 | 40.69937 | 29.00998 | 10148 ft | 280 kts | 324° |
| 2026-05-04 19:30 | 40.71354 | 28.99320 | 9730 ft | 270 kts | 324° |
| 2026-05-04 19:30 | 40.72733 | 28.97695 | 9308 ft | 260 kts | 324° |
| 2026-05-04 19:30 | 40.74078 | 28.96114 | 9159 ft | 262 kts | 324° |
| 2026-05-04 19:31 | 40.75437 | 28.94517 | 9000 ft | 260 kts | 324° |
| 2026-05-04 19:31 | 40.76784 | 28.92928 | 8870 ft | 259 kts | 324° |
| 2026-05-04 19:31 | 40.78134 | 28.91337 | 8757 ft | 261 kts | 324° |
| 2026-05-04 19:31 | 40.79477 | 28.89749 | 8631 ft | 257 kts | 324° |
| 2026-05-04 19:32 | 40.80806 | 28.88175 | 8477 ft | 255 kts | 324° |
| 2026-05-04 19:32 | 40.82113 | 28.86625 | 8148 ft | 253 kts | 324° |
| 2026-05-04 19:32 | 40.83418 | 28.85079 | 7889 ft | 247 kts | 324° |
| 2026-05-04 19:32 | 40.84661 | 28.83599 | 7783 ft | 234 kts | 324° |
| 2026-05-04 19:33 | 40.85838 | 28.82196 | 7683 ft | 221 kts | 324° |
| 2026-05-04 19:33 | 40.86980 | 28.80956 | 7572 ft | 204 kts | 332° |
| 2026-05-04 19:33 | 40.88166 | 28.80087 | 7504 ft | 186 kts | 340° |
| 2026-05-04 19:33 | 40.89264 | 28.79400 | 7428 ft | 166 kts | 340° |
| 2026-05-04 19:34 | 40.90244 | 28.78772 | 7323 ft | 148 kts | 340° |
| 2026-05-04 19:34 | 40.91115 | 28.78209 | 7255 ft | 130 kts | 340° |
| 2026-05-04 19:34 | 40.91883 | 28.77712 | 6955 ft | 122 kts | 341° |
| 2026-05-04 19:34 | 40.92690 | 28.77206 | 6389 ft | 136 kts | 338° |
| 2026-05-04 19:35 | 40.93549 | 28.76551 | 5846 ft | 143 kts | 335° |
| 2026-05-04 19:35 | 40.94351 | 28.75909 | 5672 ft | 128 kts | 335° |
| 2026-05-04 19:35 | 40.95101 | 28.75308 | 5354 ft | 125 kts | 335° |
| 2026-05-04 19:35 | 40.95837 | 28.74726 | 5117 ft | 125 kts | 335° |
| 2026-05-04 19:36 | 40.96591 | 28.74138 | 5133 ft | 127 kts | 335° |
| 2026-05-04 19:36 | 40.97373 | 28.73632 | 5135 ft | 124 kts | 346° |
| 2026-05-04 19:36 | 40.98216 | 28.73414 | 5139 ft | 123 kts | 356° |
| 2026-05-04 19:36 | 40.99070 | 28.73348 | 5137 ft | 123 kts | 359° |
| 2026-05-04 19:37 | 40.99919 | 28.73329 | 5141 ft | 122 kts | 360° |
| 2026-05-04 19:37 | 41.00770 | 28.73312 | 5138 ft | 122 kts | 359° |
| 2026-05-04 19:37 | 41.01621 | 28.73294 | 5085 ft | 122 kts | 359° |
| 2026-05-04 19:37 | 41.02475 | 28.73276 | 4964 ft | 122 kts | 359° |
| 2026-05-04 19:38 | 41.03325 | 28.73258 | 4812 ft | 122 kts | 360° |
| 2026-05-04 19:38 | 41.04178 | 28.73241 | 4653 ft | 123 kts | 360° |
| 2026-05-04 19:38 | 41.05036 | 28.73223 | 4480 ft | 123 kts | 360° |
| 2026-05-04 19:38 | 41.05894 | 28.73205 | 4347 ft | 121 kts | 360° |
| 2026-05-04 19:39 | 41.06724 | 28.73187 | 4184 ft | 119 kts | 360° |
| 2026-05-04 19:39 | 41.07548 | 28.73170 | 4023 ft | 121 kts | 359° |
| 2026-05-04 19:39 | 41.08382 | 28.73153 | 3870 ft | 120 kts | 0° |
| 2026-05-04 19:39 | 41.09219 | 28.73136 | 3695 ft | 120 kts | 0° |
| 2026-05-04 19:40 | 41.10055 | 28.73119 | 3532 ft | 121 kts | 360° |
| 2026-05-04 19:40 | 41.10907 | 28.73101 | 3370 ft | 122 kts | 0° |
| 2026-05-04 19:40 | 41.11747 | 28.73083 | 3201 ft | 121 kts | 0° |
| 2026-05-04 19:40 | 41.12594 | 28.73066 | 3034 ft | 122 kts | 360° |
| 2026-05-04 19:41 | 41.13447 | 28.73048 | 2858 ft | 123 kts | 360° |
| 2026-05-04 19:41 | 41.14311 | 28.73031 | 2698 ft | 122 kts | 0° |
| 2026-05-04 19:41 | 41.15151 | 28.73013 | 2536 ft | 123 kts | 0° |
| 2026-05-04 19:41 | 41.16011 | 28.72995 | 2366 ft | 123 kts | 359° |
| 2026-05-04 19:42 | 41.16869 | 28.72977 | 2191 ft | 123 kts | 359° |
| 2026-05-04 19:42 | 41.17725 | 28.72959 | 2029 ft | 123 kts | 360° |
| 2026-05-04 19:42 | 41.18590 | 28.72941 | 1855 ft | 125 kts | 0° |
| 2026-05-04 19:42 | 41.19456 | 28.72923 | 1701 ft | 125 kts | 0° |
| 2026-05-04 19:43 | 41.20329 | 28.72903 | 1491 ft | 124 kts | 359° |
| 2026-05-04 19:43 | 41.21197 | 28.72866 | 1302 ft | 125 kts | 359° |
| 2026-05-04 19:43 | 41.22083 | 28.72831 | 1039 ft | 129 kts | 358° |
| 2026-05-04 19:43 | 41.22966 | 28.72840 | 808 ft | 126 kts | 358° |
| 2026-05-04 19:44 | 41.23834 | 28.72849 | 650 ft | 123 kts | 354° |
| 2026-05-04 19:44 | 41.24697 | 28.72829 | 494 ft | 125 kts | 352° |
| 2026-05-04 19:44 | 41.25563 | 28.72788 | 315 ft | 126 kts | 354° |
| 2026-05-04 19:44 | 41.26425 | 28.72760 | 203 ft | 122 kts | 353° |
| 2026-05-04 19:45 | 41.27092 | 28.72749 | 175 ft | 63 kts | 0° |
| 2026-05-04 19:45 | 41.27478 | 28.72748 | 175 ft | 50 kts | 358° |
| 2026-05-04 19:45 | 41.27765 | 28.72744 | 177 ft | 16 kts | 1° |
| 2026-05-04 19:45 | 41.27878 | 28.72742 | 178 ft | 17 kts | 3° |
| 2026-05-04 19:46 | 41.27997 | 28.72793 | 177 ft | 19 kts | 22° |
| 2026-05-04 19:46 | 41.28088 | 28.72858 | 177 ft | 0 kts | 30° |
| 2026-05-04 19:46 | 41.28093 | 28.72862 | 177 ft | 3 kts | 32° |
| 2026-05-04 19:46 | 41.28102 | 28.72870 | 176 ft | 3 kts | 34° |
| 2026-05-04 19:47 | 41.28120 | 28.72909 | 176 ft | 7 kts | 81° |
| 2026-05-04 19:47 | 41.28088 | 28.72954 | 176 ft | 8 kts | 153° |
| 2026-05-04 19:47 | 41.28061 | 28.72962 | 176 ft | 1 kts | 169° |
| 2026-05-04 19:47 | 41.28038 | 28.72968 | 176 ft | 5 kts | 169° |
| 2026-05-04 19:48 | 41.27988 | 28.72972 | 176 ft | 9 kts | 176° |
| 2026-05-04 19:48 | 41.27908 | 28.72979 | 176 ft | 13 kts | 176° |